createdAt,value
2023-04-16T00:02:18.214Z,101681.59
2023-04-16T00:05:08.363Z,101680.50
2023-04-16T00:07:57.572Z,101671.25
2023-04-16T00:10:48.158Z,101679.41
2023-04-16T00:13:38.269Z,101675.31
2023-04-16T00:16:27.892Z,101674.59
2023-04-16T00:19:17.569Z,101683.53
2023-04-16T00:22:06.923Z,101679.97
2023-04-16T00:24:56.211Z,101684.06
2023-04-16T00:27:46.739Z,101685.19
2023-04-16T00:30:36.126Z,101688.50
2023-04-16T00:33:25.717Z,101691.75
2023-04-16T00:36:14.864Z,101691.47
2023-04-16T00:39:04.173Z,101690.06
2023-04-16T00:41:53.637Z,101675.91
2023-04-16T00:44:44.322Z,101686.88
2023-04-16T00:47:33.818Z,101682.81
2023-04-16T00:50:24.457Z,101682.50
2023-04-16T00:53:14.375Z,101677.09
2023-04-16T00:56:05.768Z,101675.69
2023-04-16T00:58:56.984Z,101679.75
2023-04-16T01:01:47.654Z,101663.97
2023-04-16T01:04:37.376Z,101675.91
2023-04-16T01:07:26.869Z,101667.91
2023-04-16T01:10:16.074Z,101664.88
2023-04-16T01:13:05.355Z,101671.69
2023-04-16T01:15:54.880Z,101670.88
2023-04-16T01:18:46.166Z,101664.88
2023-04-16T01:21:36.919Z,101656.66
2023-04-16T01:24:26.442Z,101662.34
2023-04-16T01:27:15.788Z,101659.69
2023-04-16T01:30:06.739Z,101653.97
2023-04-16T01:33:18.169Z,101665.41
2023-04-16T01:36:08.336Z,101660.53
2023-04-16T01:38:58.983Z,101668.94
2023-04-16T01:41:49.448Z,101657.25
2023-04-16T01:44:38.613Z,101658.28
2023-04-16T01:47:27.933Z,101666.41
2023-04-16T01:50:17.580Z,101659.25
2023-04-16T01:53:06.891Z,101656.34
2023-04-16T01:55:57.534Z,101665.84
2023-04-16T01:58:47.518Z,101642.88
2023-04-16T02:01:38.744Z,101666.34
2023-04-16T02:04:28.119Z,101669.59
2023-04-16T02:07:17.483Z,101665.03
2023-04-16T02:10:10.375Z,101661.38
2023-04-16T02:13:03.219Z,101658.38
2023-04-16T02:15:53.456Z,101665.75
2023-04-16T02:18:57.637Z,101676.13
2023-04-16T02:21:47.772Z,101667.91
2023-04-16T02:24:37.685Z,101673.41
2023-04-16T02:27:30.725Z,101669.53
2023-04-16T02:30:29.980Z,101678.56
2023-04-16T02:33:20.401Z,101666.28
2023-04-16T02:36:19.965Z,101673.59
2023-04-16T02:39:09.658Z,101664.06
2023-04-16T02:41:59.539Z,101662.56
2023-04-16T02:44:49.295Z,101668.25
2023-04-16T02:47:40.022Z,101669.38
2023-04-16T02:50:29.272Z,101673.66
2023-04-16T02:53:18.831Z,101667.56
2023-04-16T02:56:09.071Z,101669.22
2023-04-16T02:58:58.206Z,101662.91
2023-04-16T03:01:47.648Z,101671.97
2023-04-16T03:04:38.504Z,101658.25
2023-04-16T03:07:28.117Z,101659.34
2023-04-16T03:10:17.409Z,101657.41
2023-04-16T03:13:06.987Z,101657.41
2023-04-16T03:15:56.303Z,101656.03
2023-04-16T03:18:45.572Z,101660.69
2023-04-16T03:21:36.237Z,101666.50
2023-04-16T03:24:26.209Z,101640.84
2023-04-16T03:27:15.818Z,101661.81
2023-04-16T03:30:05.936Z,101668.31
2023-04-16T03:32:56.992Z,101663.13
2023-04-16T03:35:46.937Z,101669.63
2023-04-16T03:38:38.386Z,101662.03
2023-04-16T03:41:27.645Z,101674.53
2023-04-16T03:44:17.082Z,101674.53
2023-04-16T03:47:07.533Z,101678.09
2023-04-16T03:49:57.463Z,101668.75
2023-04-16T03:52:47.122Z,101669.56
2023-04-16T03:55:38.633Z,101664.69
2023-04-16T03:58:27.920Z,101657.59
2023-04-16T04:01:18.964Z,101661.66
2023-04-16T04:04:09.704Z,101661.03
2023-04-16T04:06:59.836Z,101652.38
2023-04-16T04:09:50.274Z,101653.63
2023-04-16T04:12:40.873Z,101652.59
2023-04-16T04:15:30.238Z,101641.72
2023-04-16T04:18:19.620Z,101632.97
2023-04-16T04:21:09.194Z,101640.09
2023-04-16T04:23:58.634Z,101645.25
2023-04-16T04:26:47.846Z,101644.16
2023-04-16T04:29:38.890Z,101644.97
2023-04-16T04:32:28.611Z,101641.72
2023-04-16T04:35:17.901Z,101642.81
2023-04-16T04:38:07.185Z,101642.81
2023-04-16T04:40:57.657Z,101649.34
2023-04-16T04:43:48.909Z,101642.81
2023-04-16T04:46:40.935Z,101653.19
2023-04-16T04:49:30.671Z,101655.03
2023-04-16T04:52:20.580Z,101644.97
2023-04-16T04:55:10.800Z,101663.28
2023-04-16T04:58:00.161Z,101654.00
2023-04-16T05:00:49.475Z,101665.19
2023-04-16T05:03:40.229Z,101651.06
2023-04-16T05:06:29.654Z,101660.31
2023-04-16T05:09:18.856Z,101663.88
2023-04-16T05:12:08.283Z,101665.81
2023-04-16T05:14:57.542Z,101661.94
2023-04-16T05:17:46.810Z,101675.34
2023-04-16T05:20:38.103Z,101665.28
2023-04-16T05:23:27.311Z,101683.28
2023-04-16T05:26:16.711Z,101676.97
2023-04-16T05:29:06.048Z,101672.38
2023-04-16T05:31:55.410Z,101666.31
2023-04-16T05:34:44.637Z,101681.47
2023-04-16T05:37:35.305Z,101677.19
2023-04-16T05:40:24.514Z,101692.97
2023-04-16T05:43:13.811Z,101689.13
2023-04-16T05:46:03.152Z,101687.47
2023-04-16T05:48:52.378Z,101690.94
2023-04-16T05:51:41.597Z,101688.13
2023-04-16T05:54:32.263Z,101692.69
2023-04-16T05:57:21.493Z,101688.34
2023-04-16T06:00:11.527Z,101691.81
2023-04-16T06:03:04.711Z,101695.81
2023-04-16T06:05:54.132Z,101708.63
2023-04-16T06:08:43.344Z,101709.78
2023-04-16T06:11:36.280Z,101715.91
2023-04-16T06:14:25.395Z,101716.22
2023-04-16T06:17:14.478Z,101710.44
2023-04-16T06:20:03.860Z,101707.69
2023-04-16T06:22:53.188Z,101718.78
2023-04-16T06:25:42.366Z,101717.88
2023-04-16T06:28:33.106Z,101725.19
2023-04-16T06:31:22.517Z,101716.03
2023-04-16T06:34:11.884Z,101736.00
2023-04-16T06:37:01.512Z,101739.44
2023-04-16T06:39:50.748Z,101732.31
2023-04-16T06:42:40.040Z,101733.53
2023-04-16T06:45:30.791Z,101732.09
2023-04-16T06:48:20.059Z,101739.75
2023-04-16T06:51:09.381Z,101727.72
2023-04-16T06:53:58.723Z,101736.88
2023-04-16T06:56:47.900Z,101733.31
2023-04-16T06:59:37.103Z,101729.44
2023-04-16T07:02:27.975Z,101731.28
2023-04-16T07:05:17.380Z,101743.47
2023-04-16T07:08:06.961Z,101746.72
2023-04-16T07:10:56.303Z,101750.00
2023-04-16T07:13:45.516Z,101742.25
2023-04-16T07:16:34.825Z,101753.94
2023-04-16T07:19:25.835Z,101756.41
2023-04-16T07:22:15.056Z,101757.94
2023-04-16T07:25:04.982Z,101765.25
2023-04-16T07:27:54.217Z,101769.53
2023-04-16T07:30:43.433Z,101773.59
2023-04-16T07:33:32.686Z,101778.19
2023-04-16T07:36:23.613Z,101778.38
2023-04-16T07:39:13.353Z,101769.94
2023-04-16T07:42:02.839Z,101782.31
2023-04-16T07:44:52.036Z,101785.56
2023-04-16T07:47:41.315Z,101779.47
2023-04-16T07:50:30.602Z,101790.22
2023-04-16T07:53:21.311Z,101785.44
2023-04-16T07:56:10.992Z,101774.09
2023-04-16T07:59:07.879Z,101785.50
2023-04-16T08:02:09.104Z,101792.81
2023-04-16T08:04:58.635Z,101786.97
2023-04-16T08:07:47.930Z,101790.44
2023-04-16T08:10:38.524Z,101785.88
2023-04-16T08:13:27.740Z,101791.44
2023-04-16T08:16:17.081Z,101799.50
2023-04-16T08:19:06.555Z,101801.19
2023-04-16T08:21:56.636Z,101801.19
2023-04-16T08:24:45.838Z,101800.25
2023-04-16T08:27:36.490Z,101792.81
2023-04-16T08:30:25.873Z,101801.63
2023-04-16T08:33:15.627Z,101798.91
2023-04-16T08:36:05.836Z,101800.97
2023-04-16T08:38:55.205Z,101801.59
2023-04-16T08:41:48.049Z,101807.03
2023-04-16T08:44:43.111Z,101805.44
2023-04-16T08:47:36.551Z,101792.78
2023-04-16T08:50:28.429Z,101798.00
2023-04-16T08:53:24.315Z,101758.94
2023-04-16T08:56:14.805Z,101811.16
2023-04-16T08:59:05.829Z,101818.97
2023-04-16T09:02:00.220Z,101795.78
2023-04-16T09:04:52.098Z,101802.81
2023-04-16T09:07:43.018Z,101819.75
2023-04-16T09:10:32.598Z,101804.22
2023-04-16T09:13:23.646Z,101818.03
2023-04-16T09:16:14.032Z,101830.09
2023-04-16T09:19:05.145Z,101825.25
2023-04-16T09:21:54.577Z,101820.75
2023-04-16T09:24:43.995Z,101819.59
2023-04-16T09:27:33.417Z,101809.34
2023-04-16T09:30:28.444Z,101804.81
2023-04-16T09:33:23.044Z,101842.31
2023-04-16T09:36:14.002Z,101844.25
2023-04-16T09:39:04.986Z,101841.16
2023-04-16T09:41:56.560Z,101843.13
2023-04-16T09:44:46.310Z,101839.38
2023-04-16T09:47:46.503Z,101854.84
2023-04-16T09:50:35.899Z,101852.06
2023-04-16T09:53:31.098Z,101861.16
2023-04-16T09:56:24.887Z,101870.59
2023-04-16T09:59:19.076Z,101873.19
2023-04-16T10:02:15.226Z,101871.06
2023-04-16T10:05:08.722Z,101870.56
2023-04-16T10:08:02.450Z,101870.41
2023-04-16T10:10:57.288Z,101868.25
2023-04-16T10:13:46.958Z,101880.75
2023-04-16T10:16:36.534Z,101852.69
2023-04-16T10:19:27.048Z,101881.13
2023-04-16T10:22:16.552Z,101896.09
2023-04-16T10:25:07.462Z,101854.66
2023-04-16T10:28:00.179Z,101861.97
2023-04-16T10:30:53.783Z,101879.34
2023-04-16T10:33:45.541Z,101891.50
2023-04-16T10:36:40.396Z,101875.09
2023-04-16T10:39:30.601Z,101901.06
2023-04-16T10:42:19.998Z,101895.19
2023-04-16T10:45:13.079Z,101892.38
2023-04-16T10:48:06.098Z,101897.72
2023-04-16T10:51:00.469Z,101888.78
2023-04-16T10:53:50.286Z,101855.66
2023-04-16T10:56:39.907Z,101865.72
2023-04-16T10:59:35.019Z,101872.47
2023-04-16T11:02:30.444Z,101882.28
2023-04-16T11:05:27.900Z,101870.97
2023-04-16T11:08:17.663Z,101874.66
2023-04-16T11:11:08.224Z,101887.63
2023-04-16T11:13:58.492Z,101892.84
2023-04-16T11:16:47.996Z,101893.97
2023-04-16T11:19:39.464Z,101900.88
2023-04-16T11:22:29.229Z,101882.34
2023-04-16T11:25:22.566Z,101889.94
2023-04-16T11:28:11.962Z,101895.78
2023-04-16T11:31:01.415Z,101907.91
2023-04-16T11:33:51.631Z,101895.69
2023-04-16T11:36:51.171Z,101893.28
2023-04-16T11:39:52.107Z,101895.94
2023-04-16T11:42:44.375Z,101881.19
2023-04-16T11:45:34.177Z,101888.44
2023-04-16T11:48:23.557Z,101896.88
2023-04-16T11:51:12.788Z,101902.09
2023-04-16T11:54:04.038Z,101894.03
2023-04-16T11:56:54.641Z,101883.38
2023-04-16T12:00:01.554Z,101882.69
2023-04-16T12:03:04.494Z,101890.84
2023-04-16T12:05:53.818Z,101887.81
2023-04-16T12:08:44.188Z,101875.91
2023-04-16T12:11:41.910Z,101885.16
2023-04-16T12:14:31.715Z,101878.41
2023-04-16T12:17:22.136Z,101878.78
2023-04-16T12:20:13.030Z,101882.41
2023-04-16T12:23:02.285Z,101878.78
2023-04-16T12:25:52.137Z,101883.22
2023-04-16T12:28:43.232Z,101875.53
2023-04-16T12:31:39.311Z,101880.25
2023-04-16T12:34:48.581Z,101884.03
2023-04-16T12:37:38.412Z,101875.94
2023-04-16T12:40:28.218Z,101889.56
2023-04-16T12:43:17.503Z,101892.78
2023-04-16T12:46:09.628Z,101872.94
2023-04-16T12:48:59.115Z,101878.38
2023-04-16T12:51:54.104Z,101867.56
2023-04-16T12:54:46.551Z,101866.59
2023-04-16T12:57:35.901Z,101869.06
2023-04-16T13:00:25.602Z,101869.66
2023-04-16T13:03:17.958Z,101867.38
2023-04-16T13:06:07.554Z,101873.53
2023-04-16T13:08:57.430Z,101874.75
2023-04-16T13:11:46.938Z,101880.84
2023-04-16T13:14:36.433Z,101873.28
2023-04-16T13:17:26.085Z,101881.94
2023-04-16T13:20:16.853Z,101873.47
2023-04-16T13:23:06.149Z,101881.28
2023-04-16T13:25:55.538Z,101878.97
2023-04-16T13:28:44.791Z,101881.34
2023-04-16T13:31:34.112Z,101887.69
2023-04-16T13:34:23.452Z,101876.63
2023-04-16T13:37:14.453Z,101882.78
2023-04-16T13:40:03.866Z,101879.41
2023-04-16T13:42:53.412Z,101846.91
2023-04-16T13:45:42.693Z,101873.81
2023-04-16T13:48:32.853Z,101877.91
2023-04-16T13:51:22.193Z,101880.06
2023-04-16T13:54:13.004Z,101889.06
2023-04-16T13:57:02.572Z,101881.84
2023-04-16T13:59:52.296Z,101876.03
2023-04-16T14:02:42.346Z,101876.63
2023-04-16T14:05:31.856Z,101875.81
2023-04-16T14:08:22.451Z,101874.81
2023-04-16T14:11:13.773Z,101879.44
2023-04-16T14:14:03.108Z,101880.03
2023-04-16T14:16:52.468Z,101871.22
2023-04-16T14:19:42.116Z,101881.41
2023-04-16T14:22:31.458Z,101882.41
2023-04-16T14:25:20.868Z,101885.34
2023-04-16T14:28:14.333Z,101871.03
2023-04-16T14:31:05.714Z,101886.06
2023-04-16T14:33:55.098Z,101891.22
2023-04-16T14:36:44.620Z,101879.13
2023-04-16T14:39:34.007Z,101873.53
2023-04-16T14:42:23.625Z,101871.47
2023-04-16T14:45:14.536Z,101872.38
2023-04-16T14:48:03.868Z,101878.84
2023-04-16T14:50:53.172Z,101861.75
2023-04-16T14:53:45.182Z,101874.34
2023-04-16T14:56:34.529Z,101866.94
2023-04-16T14:59:23.794Z,101871.94
2023-04-16T15:02:14.733Z,101856.44
2023-04-16T15:05:04.224Z,101871.44
2023-04-16T15:07:53.866Z,101872.25
2023-04-16T15:10:43.448Z,101860.81
2023-04-16T15:13:34.766Z,101867.13
2023-04-16T15:16:24.911Z,101864.53
2023-04-16T15:19:15.623Z,101863.34
2023-04-16T15:22:04.883Z,101863.00
2023-04-16T15:24:54.210Z,101845.09
2023-04-16T15:27:43.384Z,101862.75
2023-04-16T15:30:33.046Z,101862.00
2023-04-16T15:33:23.087Z,101845.97
2023-04-16T15:36:13.828Z,101857.47
2023-04-16T15:39:03.255Z,101860.25
2023-04-16T15:42:01.566Z,101846.59
2023-04-16T15:44:52.133Z,101840.66
2023-04-16T15:47:42.130Z,101849.00
2023-04-16T15:50:31.476Z,101853.59
2023-04-16T15:53:22.419Z,101847.53
2023-04-16T15:56:11.819Z,101854.88
2023-04-16T15:59:01.240Z,101857.47
2023-04-16T16:01:50.629Z,101850.78
2023-04-16T16:04:45.879Z,101852.69
2023-04-16T16:07:35.573Z,101849.59
2023-04-16T16:10:26.611Z,101854.72
2023-04-16T16:13:18.321Z,101834.72
2023-04-16T16:16:07.744Z,101853.91
2023-04-16T16:18:58.229Z,101837.03
2023-04-16T16:21:47.512Z,101846.16
2023-04-16T16:24:36.771Z,101851.44
2023-04-16T16:27:27.498Z,101854.84
2023-04-16T16:30:16.754Z,101842.69
2023-04-16T16:33:06.123Z,101850.31
2023-04-16T16:35:55.447Z,101843.31
2023-04-16T16:38:47.403Z,101838.47
2023-04-16T16:41:42.019Z,101853.22
2023-04-16T16:44:32.724Z,101836.75
2023-04-16T16:47:22.046Z,101845.13
2023-04-16T16:50:12.604Z,101845.53
2023-04-16T16:53:02.128Z,101828.56
2023-04-16T16:55:51.408Z,101841.50
2023-04-16T16:58:40.703Z,101836.13
2023-04-16T17:01:31.798Z,101817.28
2023-04-16T17:04:21.204Z,101850.97
2023-04-16T17:07:10.911Z,101851.22
2023-04-16T17:10:03.732Z,101826.97
2023-04-16T17:12:54.831Z,101846.56
2023-04-16T17:15:44.182Z,101831.81
2023-04-16T17:18:35.174Z,101839.97
2023-04-16T17:21:24.464Z,101839.41
2023-04-16T17:24:13.911Z,101837.34
2023-04-16T17:27:04.377Z,101824.78
2023-04-16T17:29:59.959Z,101830.06
2023-04-16T17:32:49.293Z,101844.88
2023-04-16T17:35:41.391Z,101842.56
2023-04-16T17:38:30.810Z,101846.22
2023-04-16T17:41:20.687Z,101833.41
2023-04-16T17:44:11.720Z,101826.03
2023-04-16T17:47:02.246Z,101838.22
2023-04-16T17:49:55.310Z,101840.53
2023-04-16T17:52:47.317Z,101836.41
2023-04-16T17:55:37.751Z,101836.75
2023-04-16T17:58:27.440Z,101848.25
2023-04-16T18:01:16.684Z,101848.97
2023-04-16T18:04:07.384Z,101844.81
2023-04-16T18:06:56.722Z,101829.09
2023-04-16T18:09:47.915Z,101846.00
2023-04-16T18:12:37.271Z,101847.06
2023-04-16T18:15:26.925Z,101851.13
2023-04-16T18:18:16.497Z,101864.00
2023-04-16T18:21:05.865Z,101856.97
2023-04-16T18:23:55.097Z,101846.47
2023-04-16T18:26:47.063Z,101856.53
2023-04-16T18:29:38.814Z,101861.53
2023-04-16T18:32:31.059Z,101876.56
2023-04-16T18:35:20.876Z,101864.91
2023-04-16T18:38:10.353Z,101879.94
2023-04-16T18:40:59.828Z,101884.88
2023-04-16T18:43:51.010Z,101870.16
2023-04-16T18:46:41.197Z,101879.78
2023-04-16T18:49:30.480Z,101885.44
2023-04-16T18:52:19.747Z,101885.41
2023-04-16T18:55:10.402Z,101886.78
2023-04-16T18:57:59.719Z,101892.56
2023-04-16T19:00:55.085Z,101885.81
2023-04-16T19:03:44.493Z,101892.03
2023-04-16T19:06:33.811Z,101898.94
2023-04-16T19:09:27.643Z,101894.31
2023-04-16T19:12:16.866Z,101895.19
2023-04-16T19:15:07.028Z,101895.59
2023-04-16T19:17:57.772Z,101900.88
2023-04-16T19:20:47.215Z,101892.97
2023-04-16T19:23:36.599Z,101903.09
2023-04-16T19:26:26.552Z,101900.84
2023-04-16T19:29:18.008Z,101895.94
2023-04-16T19:32:07.595Z,101908.16
2023-04-16T19:34:58.280Z,101901.38
2023-04-16T19:37:47.548Z,101906.94
2023-04-16T19:40:36.838Z,101914.59
2023-04-16T19:43:28.038Z,101912.69
2023-04-16T19:46:18.990Z,101915.19
2023-04-16T19:49:08.618Z,101918.16
2023-04-16T19:51:59.358Z,101897.38
2023-04-16T19:54:49.068Z,101927.13
2023-04-16T19:57:38.622Z,101932.06
2023-04-16T20:00:28.111Z,101934.19
2023-04-16T20:03:17.368Z,101926.72
2023-04-16T20:06:08.037Z,101928.84
2023-04-16T20:08:58.755Z,101939.59
2023-04-16T20:11:48.183Z,101936.19
2023-04-16T20:14:37.441Z,101936.38
2023-04-16T20:17:26.723Z,101945.81
2023-04-16T20:20:16.266Z,101940.94
2023-04-16T20:23:05.646Z,101939.16
2023-04-16T20:25:56.557Z,101946.00
2023-04-16T20:28:46.054Z,101946.50
2023-04-16T20:31:35.333Z,101947.63
2023-04-16T20:34:24.654Z,101950.59
2023-04-16T20:37:13.983Z,101943.75
2023-04-16T20:40:05.421Z,101949.47
2023-04-16T20:42:56.594Z,101948.50
2023-04-16T20:45:46.177Z,101948.66
2023-04-16T20:48:35.817Z,101942.94
2023-04-16T20:51:25.026Z,101954.97
2023-04-16T20:54:14.242Z,101963.44
2023-04-16T20:57:04.827Z,101961.28
2023-04-16T20:59:55.868Z,101958.38
2023-04-16T21:02:45.574Z,101966.00
2023-04-16T21:05:35.122Z,101964.38
2023-04-16T21:08:25.193Z,101957.22
2023-04-16T21:11:14.366Z,101962.09
2023-04-16T21:14:03.822Z,101974.94
2023-04-16T21:16:54.914Z,101971.81
2023-04-16T21:19:44.218Z,101972.44
2023-04-16T21:22:33.548Z,101969.69
2023-04-16T21:25:22.836Z,101971.00
2023-04-16T21:28:12.199Z,101959.13
2023-04-16T21:31:01.652Z,101971.47
2023-04-16T21:33:52.348Z,101969.16
2023-04-16T21:36:41.656Z,101971.56
2023-04-16T21:39:31.189Z,101967.03
2023-04-16T21:42:20.553Z,101982.47
2023-04-16T21:45:11.159Z,101979.81
2023-04-16T21:48:00.464Z,101971.19
2023-04-16T21:50:58.195Z,101964.31
2023-04-16T21:53:47.703Z,101986.53
2023-04-16T21:56:36.887Z,101985.56
2023-04-16T21:59:26.949Z,101977.53
2023-04-16T22:02:16.807Z,101993.00
2023-04-16T22:05:07.627Z,101992.19
2023-04-16T22:07:58.347Z,101995.06
2023-04-16T22:10:47.713Z,101980.72
2023-04-16T22:13:38.400Z,101981.84
2023-04-16T22:16:28.027Z,101982.47
2023-04-16T22:19:18.312Z,101984.75
2023-04-16T22:22:07.476Z,101987.00
2023-04-16T22:24:59.328Z,101982.75
2023-04-16T22:27:48.940Z,101986.00
2023-04-16T22:30:38.209Z,101992.16
2023-04-16T22:33:30.900Z,101988.06
2023-04-16T22:36:21.084Z,101989.19
2023-04-16T22:39:10.731Z,101981.88
2023-04-16T22:42:02.086Z,101977.31
2023-04-16T22:44:51.378Z,101985.56
2023-04-16T22:47:41.769Z,101989.63
2023-04-16T22:50:32.349Z,101999.09
2023-04-16T22:53:21.974Z,101993.28
2023-04-16T22:56:11.890Z,101988.75
2023-04-16T22:59:02.453Z,101996.41
2023-04-16T23:01:52.187Z,101996.28
2023-04-16T23:04:41.620Z,101991.06
2023-04-16T23:07:30.862Z,102006.16
2023-04-16T23:10:20.150Z,101995.78
2023-04-16T23:13:09.376Z,101995.78
2023-04-16T23:16:00.532Z,101994.16
2023-04-16T23:18:49.749Z,102003.03
2023-04-16T23:21:39.028Z,102001.72
2023-04-16T23:24:28.214Z,102005.31
2023-04-16T23:27:17.409Z,102007.09
2023-04-16T23:30:08.402Z,102010.94
2023-04-16T23:32:59.108Z,101994.84
2023-04-16T23:35:48.797Z,102004.44
2023-04-16T23:38:38.070Z,102008.94
2023-04-16T23:41:27.202Z,102012.81
2023-04-16T23:44:16.523Z,102014.28
2023-04-16T23:47:06.004Z,101999.13
2023-04-16T23:49:56.736Z,102007.31
2023-04-16T23:52:46.046Z,102019.47
2023-04-16T23:55:35.334Z,102023.25
2023-04-16T23:58:24.619Z,102021.78
